FMMI/TNR METAR and TAF weather

Enter ICAO airport designator
Station Type Date Time Source
FMMI METAR 2021/07/24 21:30 UTC NOAA

FMMI 242130Z 18007KT 140V200 9999 FEW017 BKN020 14/11 Q1025 NOSIG


Station Type Date Time Source
FMMI Decoded METAR 2021/07/24 21:30 UTC NOAA

Antananarivo / Ivato, Madagascar (FMMI) 18-48S 047-29E 1276M
Jul 24, 2021 - 05:30 PM EDT / 2021.07.24 2130 UTC
Wind: from the S (180 degrees) at 8 MPH (7 KT) (direction variable):0
Visibility: greater than 7 mile(s):0
Sky conditions: mostly cloudy
Temperature: 57 F (14 C)
Dew Point: 51 F (11 C)
Relative Humidity: 82%
Pressure (altimeter): 30.27 in. Hg (1025 hPa)
ob: FMMI 242130Z 18007KT 140V200 9999 FEW017 BKN020 14/11 Q1025 NOSIG
cycle: 21

Station Type Date Time Source
FMMI TAF 2021/07/24 18:09 UTC NOAA

TAF FMMI 241700Z 2418/2524 14005KT 9999 FEW017 SCT020
BECMG 2503/2506 14015G25KT PROB40
TEMPO 2514/2524 4500 RA

Example: see airport list